sensor_id;sensor_type;location;lat;lon;timestamp;P1;durP1;ratioP1;P2;durP2;ratioP2
54575;SDS011;40472;53.486;14.542;2023-03-23T00:01:13;5.40;;;3.20;;
54575;SDS011;40472;53.486;14.542;2023-03-23T00:03:45;7.50;;;3.30;;
54575;SDS011;40472;53.486;14.542;2023-03-23T00:06:12;6.40;;;3.40;;
54575;SDS011;40472;53.486;14.542;2023-03-23T00:08:43;7.68;;;2.90;;
54575;SDS011;40472;53.486;14.542;2023-03-23T00:11:18;8.10;;;3.60;;
54575;SDS011;40472;53.486;14.542;2023-03-23T00:13:46;7.13;;;3.55;;
54575;SDS011;40472;53.486;14.542;2023-03-23T00:16:16;5.53;;;3.20;;
54575;SDS011;40472;53.486;14.542;2023-03-23T00:18:54;10.50;;;4.10;;
54575;SDS011;40472;53.486;14.542;2023-03-23T00:21:24;5.65;;;3.30;;
54575;SDS011;40472;53.486;14.542;2023-03-23T00:26:37;7.07;;;3.55;;
54575;SDS011;40472;53.486;14.542;2023-03-23T00:29:15;6.25;;;2.90;;
54575;SDS011;40472;53.486;14.542;2023-03-23T00:31:44;8.43;;;4.25;;
54575;SDS011;40472;53.486;14.542;2023-03-23T00:34:14;12.18;;;4.22;;
54575;SDS011;40472;53.486;14.542;2023-03-23T00:36:44;13.02;;;5.05;;
54575;SDS011;40472;53.486;14.542;2023-03-23T00:39:15;8.90;;;4.25;;
54575;SDS011;40472;53.486;14.542;2023-03-23T00:41:48;9.80;;;4.32;;
54575;SDS011;40472;53.486;14.542;2023-03-23T00:44:14;8.93;;;3.65;;
54575;SDS011;40472;53.486;14.542;2023-03-23T00:46:49;8.35;;;3.55;;
54575;SDS011;40472;53.486;14.542;2023-03-23T00:49:18;2.67;;;1.75;;
54575;SDS011;40472;53.486;14.542;2023-03-23T00:51:50;8.00;;;3.45;;
54575;SDS011;40472;53.486;14.542;2023-03-23T00:54:16;9.32;;;3.97;;
54575;SDS011;40472;53.486;14.542;2023-03-23T00:56:42;10.13;;;4.05;;
54575;SDS011;40472;53.486;14.542;2023-03-23T00:59:08;8.88;;;3.90;;
54575;SDS011;40472;53.486;14.542;2023-03-23T01:01:34;13.75;;;4.50;;
54575;SDS011;40472;53.486;14.542;2023-03-23T01:04:01;7.45;;;4.03;;
54575;SDS011;40472;53.486;14.542;2023-03-23T01:06:36;8.02;;;3.90;;
54575;SDS011;40472;53.486;14.542;2023-03-23T01:09:05;9.35;;;4.22;;
54575;SDS011;40472;53.486;14.542;2023-03-23T01:11:32;11.27;;;4.25;;
54575;SDS011;40472;53.486;14.542;2023-03-23T01:13:59;12.75;;;4.95;;
54575;SDS011;40472;53.486;14.542;2023-03-23T01:16:26;10.60;;;4.53;;
54575;SDS011;40472;53.486;14.542;2023-03-23T01:18:52;9.38;;;4.82;;
54575;SDS011;40472;53.486;14.542;2023-03-23T01:21:19;9.35;;;5.25;;
54575;SDS011;40472;53.486;14.542;2023-03-23T01:23:45;8.63;;;5.00;;
54575;SDS011;40472;53.486;14.542;2023-03-23T01:26:13;7.80;;;4.30;;
54575;SDS011;40472;53.486;14.542;2023-03-23T01:28:43;10.10;;;4.68;;
54575;SDS011;40472;53.486;14.542;2023-03-23T01:31:11;10.15;;;4.80;;
54575;SDS011;40472;53.486;14.542;2023-03-23T01:33:39;8.70;;;4.57;;
54575;SDS011;40472;53.486;14.542;2023-03-23T01:36:07;8.85;;;4.28;;
54575;SDS011;40472;53.486;14.542;2023-03-23T01:38:35;5.90;;;3.45;;
54575;SDS011;40472;53.486;14.542;2023-03-23T01:41:02;9.32;;;3.60;;
54575;SDS011;40472;53.486;14.542;2023-03-23T01:43:28;7.45;;;3.80;;
54575;SDS011;40472;53.486;14.542;2023-03-23T01:45:53;5.78;;;3.28;;
54575;SDS011;40472;53.486;14.542;2023-03-23T01:51:06;9.15;;;3.50;;
54575;SDS011;40472;53.486;14.542;2023-03-23T01:53:51;4.47;;;2.67;;
54575;SDS011;40472;53.486;14.542;2023-03-23T01:58:57;10.60;;;3.28;;
54575;SDS011;40472;53.486;14.542;2023-03-23T02:01:24;5.18;;;2.88;;
54575;SDS011;40472;53.486;14.542;2023-03-23T02:03:51;5.65;;;2.90;;
54575;SDS011;40472;53.486;14.542;2023-03-23T02:06:21;8.07;;;3.70;;
54575;SDS011;40472;53.486;14.542;2023-03-23T02:08:48;13.52;;;4.05;;
54575;SDS011;40472;53.486;14.542;2023-03-23T02:11:19;9.07;;;2.97;;
54575;SDS011;40472;53.486;14.542;2023-03-23T02:13:47;5.63;;;3.30;;
54575;SDS011;40472;53.486;14.542;2023-03-23T02:16:21;5.40;;;3.08;;
54575;SDS011;40472;53.486;14.542;2023-03-23T02:27:04;6.05;;;3.35;;
54575;SDS011;40472;53.486;14.542;2023-03-23T02:32:31;5.68;;;3.38;;
54575;SDS011;40472;53.486;14.542;2023-03-23T02:35:34;8.57;;;2.90;;
54575;SDS011;40472;53.486;14.542;2023-03-23T02:38:12;8.73;;;3.10;;
54575;SDS011;40472;53.486;14.542;2023-03-23T02:40:42;6.80;;;3.10;;
54575;SDS011;40472;53.486;14.542;2023-03-23T02:43:13;4.53;;;2.83;;
54575;SDS011;40472;53.486;14.542;2023-03-23T02:45:42;6.05;;;3.35;;
54575;SDS011;40472;53.486;14.542;2023-03-23T02:48:10;4.53;;;3.10;;
54575;SDS011;40472;53.486;14.542;2023-03-23T02:50:40;6.43;;;3.22;;
54575;SDS011;40472;53.486;14.542;2023-03-23T02:53:10;5.80;;;2.95;;
54575;SDS011;40472;53.486;14.542;2023-03-23T02:55:39;6.70;;;2.72;;
54575;SDS011;40472;53.486;14.542;2023-03-23T02:58:07;3.17;;;2.00;;
54575;SDS011;40472;53.486;14.542;2023-03-23T03:00:34;6.53;;;3.13;;
54575;SDS011;40472;53.486;14.542;2023-03-23T03:03:01;3.05;;;1.83;;
54575;SDS011;40472;53.486;14.542;2023-03-23T03:05:36;2.85;;;1.92;;
54575;SDS011;40472;53.486;14.542;2023-03-23T03:11:15;4.38;;;2.67;;
54575;SDS011;40472;53.486;14.542;2023-03-23T03:13:50;5.07;;;2.55;;
54575;SDS011;40472;53.486;14.542;2023-03-23T03:21:52;5.88;;;2.78;;
54575;SDS011;40472;53.486;14.542;2023-03-23T03:24:20;3.63;;;2.13;;
54575;SDS011;40472;53.486;14.542;2023-03-23T03:26:48;6.55;;;2.58;;
54575;SDS011;40472;53.486;14.542;2023-03-23T03:29:18;3.95;;;2.35;;
54575;SDS011;40472;53.486;14.542;2023-03-23T03:31:48;2.65;;;1.83;;
54575;SDS011;40472;53.486;14.542;2023-03-23T03:34:16;4.13;;;2.25;;
54575;SDS011;40472;53.486;14.542;2023-03-23T03:36:46;5.47;;;1.48;;
54575;SDS011;40472;53.486;14.542;2023-03-23T03:39:13;3.42;;;2.08;;
54575;SDS011;40472;53.486;14.542;2023-03-23T03:41:41;8.82;;;2.67;;
54575;SDS011;40472;53.486;14.542;2023-03-23T03:44:07;6.85;;;2.83;;
54575;SDS011;40472;53.486;14.542;2023-03-23T03:46:34;4.88;;;2.60;;
54575;SDS011;40472;53.486;14.542;2023-03-23T03:49:01;7.30;;;3.17;;
54575;SDS011;40472;53.486;14.542;2023-03-23T03:51:29;4.00;;;2.45;;
54575;SDS011;40472;53.486;14.542;2023-03-23T03:53:56;5.80;;;2.92;;
54575;SDS011;40472;53.486;14.542;2023-03-23T03:56:22;7.57;;;3.58;;
54575;SDS011;40472;53.486;14.542;2023-03-23T03:58:49;4.90;;;2.75;;
54575;SDS011;40472;53.486;14.542;2023-03-23T04:01:16;4.43;;;2.15;;
54575;SDS011;40472;53.486;14.542;2023-03-23T04:03:43;6.45;;;2.30;;
54575;SDS011;40472;53.486;14.542;2023-03-23T04:06:09;5.93;;;2.83;;
54575;SDS011;40472;53.486;14.542;2023-03-23T04:08:35;3.58;;;2.35;;
54575;SDS011;40472;53.486;14.542;2023-03-23T04:11:06;5.93;;;3.22;;
54575;SDS011;40472;53.486;14.542;2023-03-23T04:13:33;8.38;;;2.45;;
54575;SDS011;40472;53.486;14.542;2023-03-23T04:15:59;4.90;;;3.13;;
54575;SDS011;40472;53.486;14.542;2023-03-23T04:18:25;5.13;;;2.53;;
54575;SDS011;40472;53.486;14.542;2023-03-23T04:20:51;4.75;;;3.10;;
54575;SDS011;40472;53.486;14.542;2023-03-23T04:23:18;5.50;;;3.30;;
54575;SDS011;40472;53.486;14.542;2023-03-23T04:25:47;3.97;;;2.15;;
54575;SDS011;40472;53.486;14.542;2023-03-23T04:28:14;5.28;;;3.33;;
54575;SDS011;40472;53.486;14.542;2023-03-23T04:30:42;2.30;;;1.50;;
54575;SDS011;40472;53.486;14.542;2023-03-23T04:33:08;6.93;;;2.40;;
54575;SDS011;40472;53.486;14.542;2023-03-23T04:35:39;4.72;;;2.95;;
54575;SDS011;40472;53.486;14.542;2023-03-23T04:38:10;4.75;;;3.05;;
54575;SDS011;40472;53.486;14.542;2023-03-23T04:40:39;8.75;;;3.22;;
54575;SDS011;40472;53.486;14.542;2023-03-23T04:43:06;5.38;;;3.15;;
54575;SDS011;40472;53.486;14.542;2023-03-23T04:45:34;3.97;;;2.83;;
54575;SDS011;40472;53.486;14.542;2023-03-23T04:48:02;5.90;;;3.30;;
54575;SDS011;40472;53.486;14.542;2023-03-23T04:50:30;2.95;;;2.10;;
54575;SDS011;40472;53.486;14.542;2023-03-23T04:52:58;5.70;;;2.15;;
54575;SDS011;40472;53.486;14.542;2023-03-23T04:55:28;5.45;;;3.25;;
54575;SDS011;40472;53.486;14.542;2023-03-23T04:57:56;6.50;;;2.88;;
54575;SDS011;40472;53.486;14.542;2023-03-23T05:00:25;2.72;;;1.85;;
54575;SDS011;40472;53.486;14.542;2023-03-23T05:02:51;4.18;;;2.75;;
54575;SDS011;40472;53.486;14.542;2023-03-23T05:05:17;7.50;;;3.65;;
54575;SDS011;40472;53.486;14.542;2023-03-23T05:07:45;8.65;;;3.53;;
54575;SDS011;40472;53.486;14.542;2023-03-23T05:10:11;4.47;;;2.65;;
54575;SDS011;40472;53.486;14.542;2023-03-23T05:12:38;6.35;;;3.60;;
54575;SDS011;40472;53.486;14.542;2023-03-23T05:15:05;5.43;;;3.38;;
54575;SDS011;40472;53.486;14.542;2023-03-23T05:17:32;5.72;;;3.50;;
54575;SDS011;40472;53.486;14.542;2023-03-23T05:19:58;6.10;;;4.18;;
54575;SDS011;40472;53.486;14.542;2023-03-23T05:22:28;4.32;;;3.00;;
54575;SDS011;40472;53.486;14.542;2023-03-23T05:24:53;7.68;;;3.58;;
54575;SDS011;40472;53.486;14.542;2023-03-23T05:27:19;6.60;;;3.80;;
54575;SDS011;40472;53.486;14.542;2023-03-23T05:29:45;9.07;;;4.05;;
54575;SDS011;40472;53.486;14.542;2023-03-23T05:32:14;9.82;;;3.70;;
54575;SDS011;40472;53.486;14.542;2023-03-23T05:34:44;2.15;;;1.90;;
54575;SDS011;40472;53.486;14.542;2023-03-23T05:37:11;4.78;;;2.53;;
54575;SDS011;40472;53.486;14.542;2023-03-23T05:39:38;7.45;;;3.53;;
54575;SDS011;40472;53.486;14.542;2023-03-23T05:42:05;7.85;;;3.28;;
54575;SDS011;40472;53.486;14.542;2023-03-23T05:44:32;8.82;;;4.05;;
54575;SDS011;40472;53.486;14.542;2023-03-23T05:46:58;7.45;;;3.17;;
54575;SDS011;40472;53.486;14.542;2023-03-23T05:49:24;11.65;;;4.53;;
54575;SDS011;40472;53.486;14.542;2023-03-23T05:51:51;15.65;;;4.93;;
54575;SDS011;40472;53.486;14.542;2023-03-23T05:54:17;7.07;;;4.35;;
54575;SDS011;40472;53.486;14.542;2023-03-23T05:56:43;7.07;;;5.15;;
54575;SDS011;40472;53.486;14.542;2023-03-23T05:59:09;4.18;;;2.65;;
54575;SDS011;40472;53.486;14.542;2023-03-23T06:01:36;10.63;;;4.53;;
54575;SDS011;40472;53.486;14.542;2023-03-23T06:04:02;5.30;;;3.83;;
54575;SDS011;40472;53.486;14.542;2023-03-23T06:06:29;4.35;;;2.70;;
54575;SDS011;40472;53.486;14.542;2023-03-23T06:08:56;5.55;;;4.03;;
54575;SDS011;40472;53.486;14.542;2023-03-23T06:11:23;7.97;;;4.18;;
54575;SDS011;40472;53.486;14.542;2023-03-23T06:13:49;11.98;;;4.03;;
54575;SDS011;40472;53.486;14.542;2023-03-23T06:16:15;3.88;;;2.97;;
54575;SDS011;40472;53.486;14.542;2023-03-23T06:18:41;9.05;;;4.47;;
54575;SDS011;40472;53.486;14.542;2023-03-23T06:21:08;5.05;;;2.83;;
54575;SDS011;40472;53.486;14.542;2023-03-23T06:23:35;6.40;;;2.80;;
54575;SDS011;40472;53.486;14.542;2023-03-23T06:26:04;9.32;;;4.38;;
54575;SDS011;40472;53.486;14.542;2023-03-23T06:28:32;8.75;;;4.70;;
54575;SDS011;40472;53.486;14.542;2023-03-23T06:31:02;7.57;;;3.45;;
54575;SDS011;40472;53.486;14.542;2023-03-23T06:33:31;7.45;;;3.05;;
54575;SDS011;40472;53.486;14.542;2023-03-23T06:35:59;9.40;;;5.32;;
54575;SDS011;40472;53.486;14.542;2023-03-23T06:38:25;8.05;;;4.30;;
54575;SDS011;40472;53.486;14.542;2023-03-23T06:40:54;9.48;;;5.43;;
54575;SDS011;40472;53.486;14.542;2023-03-23T06:43:20;4.45;;;3.05;;
54575;SDS011;40472;53.486;14.542;2023-03-23T06:45:47;7.85;;;4.88;;
54575;SDS011;40472;53.486;14.542;2023-03-23T06:48:13;8.75;;;4.72;;
54575;SDS011;40472;53.486;14.542;2023-03-23T06:50:44;10.55;;;5.15;;
54575;SDS011;40472;53.486;14.542;2023-03-23T06:53:11;6.00;;;3.78;;
54575;SDS011;40472;53.486;14.542;2023-03-23T06:55:37;8.05;;;3.78;;
54575;SDS011;40472;53.486;14.542;2023-03-23T06:58:07;11.07;;;5.50;;
54575;SDS011;40472;53.486;14.542;2023-03-23T07:00:34;9.25;;;5.60;;
54575;SDS011;40472;53.486;14.542;2023-03-23T07:02:59;10.05;;;5.18;;
54575;SDS011;40472;53.486;14.542;2023-03-23T07:05:26;9.48;;;4.65;;
54575;SDS011;40472;53.486;14.542;2023-03-23T07:07:52;12.43;;;5.10;;
54575;SDS011;40472;53.486;14.542;2023-03-23T07:10:18;8.93;;;4.68;;
54575;SDS011;40472;53.486;14.542;2023-03-23T07:12:46;4.07;;;2.42;;
54575;SDS011;40472;53.486;14.542;2023-03-23T07:15:14;8.00;;;4.80;;
54575;SDS011;40472;53.486;14.542;2023-03-23T07:17:41;9.48;;;4.47;;
54575;SDS011;40472;53.486;14.542;2023-03-23T07:20:07;4.88;;;3.47;;
54575;SDS011;40472;53.486;14.542;2023-03-23T07:22:33;8.32;;;4.90;;
54575;SDS011;40472;53.486;14.542;2023-03-23T07:25:00;8.23;;;4.38;;
54575;SDS011;40472;53.486;14.542;2023-03-23T07:27:26;8.35;;;2.78;;
54575;SDS011;40472;53.486;14.542;2023-03-23T07:29:54;5.88;;;4.00;;
54575;SDS011;40472;53.486;14.542;2023-03-23T07:32:20;6.72;;;4.28;;
54575;SDS011;40472;53.486;14.542;2023-03-23T07:34:46;14.07;;;5.63;;
54575;SDS011;40472;53.486;14.542;2023-03-23T07:37:14;5.20;;;2.70;;
54575;SDS011;40472;53.486;14.542;2023-03-23T07:39:40;9.57;;;5.47;;
54575;SDS011;40472;53.486;14.542;2023-03-23T07:42:07;8.80;;;4.63;;
54575;SDS011;40472;53.486;14.542;2023-03-23T07:44:33;9.13;;;5.10;;
54575;SDS011;40472;53.486;14.542;2023-03-23T07:46:59;5.22;;;3.33;;
54575;SDS011;40472;53.486;14.542;2023-03-23T07:49:25;6.25;;;3.78;;
54575;SDS011;40472;53.486;14.542;2023-03-23T07:51:51;8.48;;;4.00;;
54575;SDS011;40472;53.486;14.542;2023-03-23T07:54:17;8.07;;;4.13;;
54575;SDS011;40472;53.486;14.542;2023-03-23T07:56:43;8.00;;;4.55;;
54575;SDS011;40472;53.486;14.542;2023-03-23T07:59:10;9.15;;;4.88;;
54575;SDS011;40472;53.486;14.542;2023-03-23T08:01:37;11.43;;;4.43;;
54575;SDS011;40472;53.486;14.542;2023-03-23T08:04:04;9.70;;;3.88;;
54575;SDS011;40472;53.486;14.542;2023-03-23T08:06:31;7.88;;;4.13;;
54575;SDS011;40472;53.486;14.542;2023-03-23T08:08:59;8.30;;;3.88;;
54575;SDS011;40472;53.486;14.542;2023-03-23T08:11:25;4.45;;;3.00;;
54575;SDS011;40472;53.486;14.542;2023-03-23T08:13:51;8.25;;;3.88;;
54575;SDS011;40472;53.486;14.542;2023-03-23T08:16:18;3.50;;;2.67;;
54575;SDS011;40472;53.486;14.542;2023-03-23T08:18:45;6.85;;;4.65;;
54575;SDS011;40472;53.486;14.542;2023-03-23T08:21:11;8.18;;;4.10;;
54575;SDS011;40472;53.486;14.542;2023-03-23T08:23:38;8.90;;;4.82;;
54575;SDS011;40472;53.486;14.542;2023-03-23T08:26:07;4.95;;;3.83;;
54575;SDS011;40472;53.486;14.542;2023-03-23T08:28:34;10.30;;;3.20;;
54575;SDS011;40472;53.486;14.542;2023-03-23T08:31:05;8.35;;;4.68;;
54575;SDS011;40472;53.486;14.542;2023-03-23T08:33:35;3.83;;;2.55;;
54575;SDS011;40472;53.486;14.542;2023-03-23T08:36:02;8.23;;;3.53;;
54575;SDS011;40472;53.486;14.542;2023-03-23T08:38:28;5.60;;;3.70;;
54575;SDS011;40472;53.486;14.542;2023-03-23T08:41:02;6.13;;;3.53;;
54575;SDS011;40472;53.486;14.542;2023-03-23T08:43:30;7.97;;;4.20;;
54575;SDS011;40472;53.486;14.542;2023-03-23T08:45:58;4.68;;;2.95;;
54575;SDS011;40472;53.486;14.542;2023-03-23T08:48:24;7.25;;;3.88;;
54575;SDS011;40472;53.486;14.542;2023-03-23T08:50:50;4.63;;;2.20;;
54575;SDS011;40472;53.486;14.542;2023-03-23T08:53:17;3.38;;;2.53;;
54575;SDS011;40472;53.486;14.542;2023-03-23T08:55:46;6.18;;;3.55;;
54575;SDS011;40472;53.486;14.542;2023-03-23T08:58:14;4.68;;;3.00;;
54575;SDS011;40472;53.486;14.542;2023-03-23T09:00:39;4.07;;;2.08;;
54575;SDS011;40472;53.486;14.542;2023-03-23T09:03:05;9.55;;;4.38;;
54575;SDS011;40472;53.486;14.542;2023-03-23T09:05:32;7.38;;;3.65;;
54575;SDS011;40472;53.486;14.542;2023-03-23T09:07:58;5.57;;;3.80;;
54575;SDS011;40472;53.486;14.542;2023-03-23T09:10:24;6.05;;;3.40;;
54575;SDS011;40472;53.486;14.542;2023-03-23T09:12:53;2.80;;;1.83;;
54575;SDS011;40472;53.486;14.542;2023-03-23T09:15:19;7.28;;;3.92;;
54575;SDS011;40472;53.486;14.542;2023-03-23T09:17:47;5.68;;;3.35;;
54575;SDS011;40472;53.486;14.542;2023-03-23T09:20:15;8.55;;;4.28;;
54575;SDS011;40472;53.486;14.542;2023-03-23T09:22:48;6.28;;;3.40;;
54575;SDS011;40472;53.486;14.542;2023-03-23T09:25:17;6.72;;;3.50;;
54575;SDS011;40472;53.486;14.542;2023-03-23T09:27:47;3.20;;;2.33;;
54575;SDS011;40472;53.486;14.542;2023-03-23T09:32:55;6.50;;;3.80;;
54575;SDS011;40472;53.486;14.542;2023-03-23T09:35:22;6.50;;;3.90;;
54575;SDS011;40472;53.486;14.542;2023-03-23T09:37:50;3.53;;;1.98;;
54575;SDS011;40472;53.486;14.542;2023-03-23T09:40:21;5.25;;;3.05;;
54575;SDS011;40472;53.486;14.542;2023-03-23T09:42:58;5.40;;;3.42;;
54575;SDS011;40472;53.486;14.542;2023-03-23T09:53:52;5.13;;;3.08;;
54575;SDS011;40472;53.486;14.542;2023-03-23T09:56:21;5.43;;;2.20;;
54575;SDS011;40472;53.486;14.542;2023-03-23T09:58:52;8.88;;;2.33;;
54575;SDS011;40472;53.486;14.542;2023-03-23T10:01:39;5.50;;;2.17;;
54575;SDS011;40472;53.486;14.542;2023-03-23T10:07:10;3.13;;;2.03;;
54575;SDS011;40472;53.486;14.542;2023-03-23T10:09:45;3.00;;;2.20;;
54575;SDS011;40472;53.486;14.542;2023-03-23T10:17:54;4.88;;;1.80;;
54575;SDS011;40472;53.486;14.542;2023-03-23T10:20:54;5.30;;;1.92;;
54575;SDS011;40472;53.486;14.542;2023-03-23T10:28:57;3.28;;;1.30;;
54575;SDS011;40472;53.486;14.542;2023-03-23T10:31:38;3.72;;;1.52;;
54575;SDS011;40472;53.486;14.542;2023-03-23T10:34:23;5.20;;;2.55;;
54575;SDS011;40472;53.486;14.542;2023-03-23T10:39:33;1.33;;;0.98;;
54575;SDS011;40472;53.486;14.542;2023-03-23T10:42:09;4.00;;;1.70;;
54575;SDS011;40472;53.486;14.542;2023-03-23T10:44:36;1.48;;;0.85;;
54575;SDS011;40472;53.486;14.542;2023-03-23T10:47:04;2.20;;;1.48;;
54575;SDS011;40472;53.486;14.542;2023-03-23T10:57:43;2.20;;;1.13;;
54575;SDS011;40472;53.486;14.542;2023-03-23T11:03:06;4.28;;;0.77;;
54575;SDS011;40472;53.486;14.542;2023-03-23T11:05:49;4.22;;;1.02;;
54575;SDS011;40472;53.486;14.542;2023-03-23T11:08:21;2.08;;;1.00;;
54575;SDS011;40472;53.486;14.542;2023-03-23T11:10:53;5.93;;;1.70;;
54575;SDS011;40472;53.486;14.542;2023-03-23T11:13:21;3.17;;;1.30;;
54575;SDS011;40472;53.486;14.542;2023-03-23T11:15:52;5.55;;;1.33;;
54575;SDS011;40472;53.486;14.542;2023-03-23T11:18:19;3.33;;;1.10;;
54575;SDS011;40472;53.486;14.542;2023-03-23T11:20:59;2.20;;;1.40;;
54575;SDS011;40472;53.486;14.542;2023-03-23T11:23:47;4.10;;;1.20;;
54575;SDS011;40472;53.486;14.542;2023-03-23T11:26:36;0.65;;;0.60;;
54575;SDS011;40472;53.486;14.542;2023-03-23T11:31:40;1.83;;;0.95;;
54575;SDS011;40472;53.486;14.542;2023-03-23T11:34:11;2.08;;;0.85;;
54575;SDS011;40472;53.486;14.542;2023-03-23T11:36:41;0.90;;;0.70;;
54575;SDS011;40472;53.486;14.542;2023-03-23T11:39:24;1.52;;;0.95;;
54575;SDS011;40472;53.486;14.542;2023-03-23T11:41:59;1.40;;;0.90;;
54575;SDS011;40472;53.486;14.542;2023-03-23T11:44:34;2.47;;;1.38;;
54575;SDS011;40472;53.486;14.542;2023-03-23T11:52:21;2.05;;;1.25;;
54575;SDS011;40472;53.486;14.542;2023-03-23T11:55:00;3.10;;;0.93;;
54575;SDS011;40472;53.486;14.542;2023-03-23T11:57:37;3.53;;;0.93;;
54575;SDS011;40472;53.486;14.542;2023-03-23T12:00:16;1.08;;;0.95;;
54575;SDS011;40472;53.486;14.542;2023-03-23T12:08:35;4.35;;;1.60;;
54575;SDS011;40472;53.486;14.542;2023-03-23T12:14:11;7.70;;;1.40;;
54575;SDS011;40472;53.486;14.542;2023-03-23T12:16:52;3.13;;;1.00;;
54575;SDS011;40472;53.486;14.542;2023-03-23T12:19:45;6.15;;;0.90;;
54575;SDS011;40472;53.486;14.542;2023-03-23T12:49:40;1.10;;;0.80;;
54575;SDS011;40472;53.486;14.542;2023-03-23T12:57:32;1.67;;;1.10;;
54575;SDS011;40472;53.486;14.542;2023-03-23T13:05:44;1.45;;;1.02;;
54575;SDS011;40472;53.486;14.542;2023-03-23T13:08:24;6.47;;;1.08;;
54575;SDS011;40472;53.486;14.542;2023-03-23T13:10:57;2.17;;;1.03;;
54575;SDS011;40472;53.486;14.542;2023-03-23T13:19:13;1.40;;;0.90;;
54575;SDS011;40472;53.486;14.542;2023-03-23T13:24:17;5.22;;;1.52;;
54575;SDS011;40472;53.486;14.542;2023-03-23T13:26:48;2.10;;;0.80;;
54575;SDS011;40472;53.486;14.542;2023-03-23T13:29:27;1.23;;;0.55;;
54575;SDS011;40472;53.486;14.542;2023-03-23T13:32:09;2.03;;;0.80;;
54575;SDS011;40472;53.486;14.542;2023-03-23T13:34:38;1.77;;;0.93;;
54575;SDS011;40472;53.486;14.542;2023-03-23T13:37:09;3.15;;;1.58;;
54575;SDS011;40472;53.486;14.542;2023-03-23T13:42:25;3.70;;;1.20;;
54575;SDS011;40472;53.486;14.542;2023-03-23T14:09:13;1.55;;;1.05;;
54575;SDS011;40472;53.486;14.542;2023-03-23T14:14:31;2.58;;;1.48;;
54575;SDS011;40472;53.486;14.542;2023-03-23T14:17:17;1.90;;;1.17;;
54575;SDS011;40472;53.486;14.542;2023-03-23T14:19:52;2.80;;;1.35;;
54575;SDS011;40472;53.486;14.542;2023-03-23T14:22:27;2.30;;;1.02;;
54575;SDS011;40472;53.486;14.542;2023-03-23T14:25:16;1.92;;;0.90;;
54575;SDS011;40472;53.486;14.542;2023-03-23T14:27:43;2.20;;;0.50;;
54575;SDS011;40472;53.486;14.542;2023-03-23T14:30:14;2.20;;;0.50;;
54575;SDS011;40472;53.486;14.542;2023-03-23T14:32:44;1.50;;;0.50;;
54575;SDS011;40472;53.486;14.542;2023-03-23T14:35:27;3.10;;;0.88;;
54575;SDS011;40472;53.486;14.542;2023-03-23T14:37:57;0.75;;;0.38;;
54575;SDS011;40472;53.486;14.542;2023-03-23T14:40:25;1.88;;;0.52;;
54575;SDS011;40472;53.486;14.542;2023-03-23T14:42:52;1.13;;;0.60;;
54575;SDS011;40472;53.486;14.542;2023-03-23T14:45:20;1.38;;;0.60;;
54575;SDS011;40472;53.486;14.542;2023-03-23T14:52:56;1.90;;;0.65;;
54575;SDS011;40472;53.486;14.542;2023-03-23T14:55:27;2.78;;;1.02;;
54575;SDS011;40472;53.486;14.542;2023-03-23T14:57:56;1.55;;;1.10;;
54575;SDS011;40472;53.486;14.542;2023-03-23T15:00:34;1.55;;;1.05;;
54575;SDS011;40472;53.486;14.542;2023-03-23T15:03:04;1.23;;;0.95;;
54575;SDS011;40472;53.486;14.542;2023-03-23T15:05:35;2.17;;;1.30;;
54575;SDS011;40472;53.486;14.542;2023-03-23T15:08:11;4.65;;;1.27;;
54575;SDS011;40472;53.486;14.542;2023-03-23T15:10:52;3.15;;;1.40;;
54575;SDS011;40472;53.486;14.542;2023-03-23T15:13:19;2.65;;;1.67;;
54575;SDS011;40472;53.486;14.542;2023-03-23T15:15:45;2.20;;;1.48;;
54575;SDS011;40472;53.486;14.542;2023-03-23T15:18:24;4.45;;;1.77;;
54575;SDS011;40472;53.486;14.542;2023-03-23T15:20:57;4.55;;;1.90;;
54575;SDS011;40472;53.486;14.542;2023-03-23T15:23:27;4.15;;;2.20;;
54575;SDS011;40472;53.486;14.542;2023-03-23T15:25:55;2.22;;;1.25;;
54575;SDS011;40472;53.486;14.542;2023-03-23T15:28:27;8.00;;;1.50;;
54575;SDS011;40472;53.486;14.542;2023-03-23T15:30:57;2.80;;;1.30;;
54575;SDS011;40472;53.486;14.542;2023-03-23T15:33:37;2.20;;;1.27;;
54575;SDS011;40472;53.486;14.542;2023-03-23T15:36:08;4.22;;;1.40;;
54575;SDS011;40472;53.486;14.542;2023-03-23T15:38:44;4.47;;;1.23;;
54575;SDS011;40472;53.486;14.542;2023-03-23T15:41:25;5.90;;;1.52;;
54575;SDS011;40472;53.486;14.542;2023-03-23T15:44:08;1.98;;;1.35;;
54575;SDS011;40472;53.486;14.542;2023-03-23T15:47:01;5.80;;;1.50;;
54575;SDS011;40472;53.486;14.542;2023-03-23T15:49:40;3.08;;;1.48;;
54575;SDS011;40472;53.486;14.542;2023-03-23T15:52:08;3.78;;;1.30;;
54575;SDS011;40472;53.486;14.542;2023-03-23T15:54:36;3.72;;;2.08;;
54575;SDS011;40472;53.486;14.542;2023-03-23T15:57:02;2.38;;;1.40;;
54575;SDS011;40472;53.486;14.542;2023-03-23T15:59:28;4.97;;;1.80;;
54575;SDS011;40472;53.486;14.542;2023-03-23T16:01:54;4.80;;;2.00;;
54575;SDS011;40472;53.486;14.542;2023-03-23T16:04:21;3.97;;;1.90;;
54575;SDS011;40472;53.486;14.542;2023-03-23T16:06:47;4.85;;;2.67;;
54575;SDS011;40472;53.486;14.542;2023-03-23T16:09:15;0.95;;;0.80;;
54575;SDS011;40472;53.486;14.542;2023-03-23T16:11:43;5.18;;;2.08;;
54575;SDS011;40472;53.486;14.542;2023-03-23T16:14:09;3.17;;;1.35;;
54575;SDS011;40472;53.486;14.542;2023-03-23T16:16:37;4.10;;;1.40;;
54575;SDS011;40472;53.486;14.542;2023-03-23T16:19:10;3.22;;;1.50;;
54575;SDS011;40472;53.486;14.542;2023-03-23T16:21:37;2.08;;;1.30;;
54575;SDS011;40472;53.486;14.542;2023-03-23T16:24:03;3.60;;;1.60;;
54575;SDS011;40472;53.486;14.542;2023-03-23T16:26:28;4.25;;;1.98;;
54575;SDS011;40472;53.486;14.542;2023-03-23T16:28:55;3.10;;;1.27;;
54575;SDS011;40472;53.486;14.542;2023-03-23T16:31:21;6.43;;;2.40;;
54575;SDS011;40472;53.486;14.542;2023-03-23T16:33:47;2.85;;;1.40;;
54575;SDS011;40472;53.486;14.542;2023-03-23T16:36:12;21.10;;;1.80;;
54575;SDS011;40472;53.486;14.542;2023-03-23T16:38:39;3.40;;;1.45;;
54575;SDS011;40472;53.486;14.542;2023-03-23T16:41:06;6.53;;;1.77;;
54575;SDS011;40472;53.486;14.542;2023-03-23T16:43:33;7.00;;;3.35;;
54575;SDS011;40472;53.486;14.542;2023-03-23T16:45:59;4.85;;;2.53;;
54575;SDS011;40472;53.486;14.542;2023-03-23T16:48:25;9.68;;;4.75;;
54575;SDS011;40472;53.486;14.542;2023-03-23T16:50:51;7.53;;;2.78;;
54575;SDS011;40472;53.486;14.542;2023-03-23T16:53:19;5.60;;;2.75;;
54575;SDS011;40472;53.486;14.542;2023-03-23T16:55:45;4.53;;;2.13;;
54575;SDS011;40472;53.486;14.542;2023-03-23T16:58:12;4.68;;;1.27;;
54575;SDS011;40472;53.486;14.542;2023-03-23T17:00:40;1.40;;;1.15;;
54575;SDS011;40472;53.486;14.542;2023-03-23T17:03:06;4.00;;;1.98;;
54575;SDS011;40472;53.486;14.542;2023-03-23T17:05:33;4.30;;;1.67;;
54575;SDS011;40472;53.486;14.542;2023-03-23T17:08:00;3.90;;;1.63;;
54575;SDS011;40472;53.486;14.542;2023-03-23T17:10:26;4.30;;;2.40;;
54575;SDS011;40472;53.486;14.542;2023-03-23T17:12:53;4.68;;;2.03;;
54575;SDS011;40472;53.486;14.542;2023-03-23T17:15:20;7.97;;;2.47;;
54575;SDS011;40472;53.486;14.542;2023-03-23T17:17:48;5.40;;;1.98;;
54575;SDS011;40472;53.486;14.542;2023-03-23T17:20:15;2.85;;;1.55;;
54575;SDS011;40472;53.486;14.542;2023-03-23T17:22:45;3.70;;;1.80;;
54575;SDS011;40472;53.486;14.542;2023-03-23T17:25:14;4.43;;;2.15;;
54575;SDS011;40472;53.486;14.542;2023-03-23T17:27:40;3.72;;;1.80;;
54575;SDS011;40472;53.486;14.542;2023-03-23T17:30:07;2.47;;;1.75;;
54575;SDS011;40472;53.486;14.542;2023-03-23T17:32:33;5.82;;;2.53;;